Terminal Aerodrome Forecast
Issued by NWS Amarillo, TX

Home | Current Version | Previous Version | Text Only | Print | Product List | Glossary On
Versions: 1 2 3 4 5 6 7 8 9 10 11 12 13 14 15 16 17 18 19 20 21 22 23 24
000
FTUS44 KAMA 031100
TAFGUY
TAF
KGUY 031130Z 0312/0412 23013KT P6SM SKC WS020/22040KT
     FM031500 28011KT P6SM SCT040 BKN200
     FM032000 02014KT P6SM SCT025 BKN040
     FM040200 04011KT P6SM SCT005 BKN025
     FM040800 03015G25KT P6SM -SN OVC002=

USA.gov is the U.S. government's official web portal to all federal, state and local government web resources and services.